Time;durP1;ratioP1;P1;durP2;ratioP2;P2;SDS_P1;SDS_P2;PMS_P1;PMS_P2;Temp;Humidity;BMP_temperature;BMP_pressure;BME280_temperature;BME280_humidity;BME280_pressure;Samples;Min_cycle;Max_cycle;Signal;HPM_P1;HPM_P2
2023/12/28 00:02:18;;;;;;;4.03;2.33;;;;;;;;;;4974126;28;20061;-58
2023/12/28 00:04:45;;;;;;;7.22;3.08;;;;;;;;;;4972322;28;20587;-59
2023/12/28 00:07:12;;;;;;;6.38;3.00;;;;;;;;;;4968168;28;20034;-59
2023/12/28 00:09:38;;;;;;;7.65;2.63;;;;;;;;;;4969970;28;20061;-59
2023/12/28 00:12:05;;;;;;;7.70;2.92;;;;;;;;;;4967842;28;20047;-58
2023/12/28 00:14:31;;;;;;;5.00;2.90;;;;;;;;;;4970297;28;20086;-58
2023/12/28 00:16:57;;;;;;;4.40;2.80;;;;;;;;;;4957362;28;20039;-58
2023/12/28 00:19:23;;;;;;;10.82;3.20;;;;;;;;;;4964360;28;20497;-58
2023/12/28 00:21:49;;;;;;;8.35;3.25;;;;;;;;;;4961032;28;20047;-58
2023/12/28 00:24:15;;;;;;;5.03;3.35;;;;;;;;;;4967526;28;20042;-58
2023/12/28 00:26:41;;;;;;;5.95;3.03;;;;;;;;;;4973215;28;20515;-58
2023/12/28 00:29:07;;;;;;;9.52;3.15;;;;;;;;;;4973685;28;20039;-59
2023/12/28 00:31:33;;;;;;;6.80;3.42;;;;;;;;;;4980670;28;20046;-59
2023/12/28 00:33:59;;;;;;;7.82;2.85;;;;;;;;;;4969680;28;20086;-59
2023/12/28 00:36:25;;;;;;;6.65;3.20;;;;;;;;;;4977736;28;20042;-58
2023/12/28 00:38:53;;;;;;;6.25;3.38;;;;;;;;;;4968687;28;20050;-59
2023/12/28 00:41:19;;;;;;;7.75;3.00;;;;;;;;;;4968469;28;20046;-59
2023/12/28 00:43:45;;;;;;;8.23;3.28;;;;;;;;;;4964190;28;20105;-59
2023/12/28 00:46:11;;;;;;;6.82;3.22;;;;;;;;;;4962146;28;20079;-59
2023/12/28 00:48:37;;;;;;;5.68;3.28;;;;;;;;;;4966588;28;20078;-59
2023/12/28 00:51:03;;;;;;;9.25;3.60;;;;;;;;;;4973149;28;20109;-59
2023/12/28 00:53:29;;;;;;;15.63;3.20;;;;;;;;;;4975461;28;20038;-59
2023/12/28 00:55:55;;;;;;;5.72;3.30;;;;;;;;;;4978860;28;20054;-59
2023/12/28 00:58:21;;;;;;;7.85;3.47;;;;;;;;;;4975823;28;20472;-58
2023/12/28 01:00:47;;;;;;;6.90;2.60;;;;;;;;;;4972994;28;20137;-59
2023/12/28 01:03:13;;;;;;;6.93;2.92;;;;;;;;;;4968514;28;20102;-59
2023/12/28 01:05:39;;;;;;;9.48;3.30;;;;;;;;;;4972534;28;20640;-59
2023/12/28 01:08:05;;;;;;;8.10;2.92;;;;;;;;;;4968178;28;20146;-59
2023/12/28 01:10:31;;;;;;;6.35;3.00;;;;;;;;;;4958897;28;20050;-58
2023/12/28 01:12:57;;;;;;;8.48;3.22;;;;;;;;;;4966509;28;20047;-59
2023/12/28 01:15:23;;;;;;;8.02;3.30;;;;;;;;;;4952545;28;20102;-59
2023/12/28 01:17:49;;;;;;;7.47;3.00;;;;;;;;;;4965004;28;20035;-59
2023/12/28 01:20:15;;;;;;;6.03;3.22;;;;;;;;;;4957498;28;20081;-59
2023/12/28 01:22:41;;;;;;;12.90;3.33;;;;;;;;;;4948438;28;20067;-59
2023/12/28 01:25:07;;;;;;;5.07;3.67;;;;;;;;;;4970971;28;20055;-58
2023/12/28 01:27:33;;;;;;;8.82;3.30;;;;;;;;;;4973938;28;20038;-58
2023/12/28 01:29:59;;;;;;;6.90;3.05;;;;;;;;;;4980417;28;20264;-58
2023/12/28 01:32:25;;;;;;;9.30;3.63;;;;;;;;;;4966997;28;20485;-58
2023/12/28 01:34:51;;;;;;;8.07;2.92;;;;;;;;;;4966348;28;20086;-58
2023/12/28 01:37:17;;;;;;;9.30;3.33;;;;;;;;;;4971753;28;20780;-59
2023/12/28 01:39:43;;;;;;;10.05;3.38;;;;;;;;;;4970658;28;20046;-59
2023/12/28 01:42:09;;;;;;;7.78;3.70;;;;;;;;;;4968844;28;20381;-58
2023/12/28 01:44:35;;;;;;;11.95;3.92;;;;;;;;;;4976137;28;20050;-58
2023/12/28 01:47:01;;;;;;;12.77;3.70;;;;;;;;;;4981001;28;20564;-58
2023/12/28 01:49:27;;;;;;;8.57;3.45;;;;;;;;;;4978896;28;20042;-58
2023/12/28 01:51:53;;;;;;;9.40;3.63;;;;;;;;;;4968766;28;20047;-58
2023/12/28 01:54:20;;;;;;;10.88;3.55;;;;;;;;;;4978248;28;20046;-58
2023/12/28 01:56:46;;;;;;;7.05;3.20;;;;;;;;;;4978564;28;20038;-58
2023/12/28 01:59:12;;;;;;;8.50;3.53;;;;;;;;;;4976129;28;20054;-59
2023/12/28 02:01:38;;;;;;;12.98;3.65;;;;;;;;;;4975800;28;20562;-58
2023/12/28 02:04:04;;;;;;;15.80;3.50;;;;;;;;;;4974652;28;20050;-58
2023/12/28 02:06:30;;;;;;;11.98;3.20;;;;;;;;;;4982279;28;20468;-59
2023/12/28 02:08:56;;;;;;;11.10;3.45;;;;;;;;;;5049519;23;20385;-58
2023/12/28 02:11:22;;;;;;;10.27;3.03;;;;;;;;;;4983291;28;20124;-59
2023/12/28 02:13:48;;;;;;;13.75;3.80;;;;;;;;;;4987768;28;20045;-59
2023/12/28 02:16:17;;;;;;;8.57;3.38;;;;;;;;;;4999877;28;20556;-59
2023/12/28 02:18:44;;;;;;;16.80;4.15;;;;;;;;;;4996413;28;20057;-59
2023/12/28 02:21:12;;;;;;;12.57;3.55;;;;;;;;;;4999684;28;20133;-58
2023/12/28 02:23:38;;;;;;;10.40;3.80;;;;;;;;;;4997761;28;20053;-58
2023/12/28 02:26:04;;;;;;;10.55;3.72;;;;;;;;;;4991206;28;20046;-58
2023/12/28 02:28:31;;;;;;;14.40;3.45;;;;;;;;;;4993156;28;20931;-58
2023/12/28 02:30:57;;;;;;;11.90;3.00;;;;;;;;;;4996732;28;20045;-58
2023/12/28 02:33:30;;;;;;;11.18;2.90;;;;;;;;;;4996909;28;20180;-58
2023/12/28 02:35:57;;;;;;;11.23;3.17;;;;;;;;;;4995805;28;20044;-59
2023/12/28 02:38:24;;;;;;;8.87;2.93;;;;;;;;;;4995637;28;20882;-59
2023/12/28 02:40:51;;;;;;;10.70;2.83;;;;;;;;;;4995237;28;20387;-59
2023/12/28 02:43:17;;;;;;;11.05;2.75;;;;;;;;;;4988327;28;20594;-59
2023/12/28 02:45:43;;;;;;;8.85;3.10;;;;;;;;;;4999061;28;20049;-58
2023/12/28 02:48:09;;;;;;;19.55;3.10;;;;;;;;;;5000398;28;20044;-59
2023/12/28 02:50:35;;;;;;;14.27;2.88;;;;;;;;;;4997464;28;20045;-58
2023/12/28 02:53:02;;;;;;;12.80;2.63;;;;;;;;;;4994943;28;20127;-58
2023/12/28 02:55:28;;;;;;;10.55;2.50;;;;;;;;;;4995829;28;20054;-58
2023/12/28 02:57:59;;;;;;;9.75;2.22;;;;;;;;;;4991053;28;20062;-58
2023/12/28 03:00:25;;;;;;;10.10;2.38;;;;;;;;;;4999231;28;20046;-59
2023/12/28 03:02:51;;;;;;;8.77;2.60;;;;;;;;;;4988204;28;20050;-59
2023/12/28 03:05:18;;;;;;;9.13;2.67;;;;;;;;;;4991191;28;20030;-60
2023/12/28 03:07:44;;;;;;;8.15;2.05;;;;;;;;;;4986691;28;20177;-58
2023/12/28 03:10:13;;;;;;;14.77;4.45;;;;;;;;;;4988083;28;20056;-58
2023/12/28 03:12:39;;;;;;;10.57;2.30;;;;;;;;;;4983407;28;20054;-58
2023/12/28 03:15:05;;;;;;;8.68;2.10;;;;;;;;;;4984213;28;20068;-58
2023/12/28 03:17:32;;;;;;;8.10;1.90;;;;;;;;;;4981375;28;20050;-58
2023/12/28 03:20:01;;;;;;;8.88;1.63;;;;;;;;;;4992317;28;20059;-58
2023/12/28 03:22:27;;;;;;;7.18;2.28;;;;;;;;;;4998218;28;20447;-58
2023/12/28 03:24:53;;;;;;;9.00;2.40;;;;;;;;;;4996920;28;20049;-58
2023/12/28 03:27:19;;;;;;;11.70;2.05;;;;;;;;;;4988068;28;20099;-59
2023/12/28 03:29:46;;;;;;;13.10;2.03;;;;;;;;;;4998474;28;20132;-58
2023/12/28 03:32:12;;;;;;;7.63;2.10;;;;;;;;;;4996922;28;20042;-58
2023/12/28 03:34:38;;;;;;;12.70;2.08;;;;;;;;;;4997681;28;20557;-58
2023/12/28 03:37:04;;;;;;;11.38;1.98;;;;;;;;;;4995065;28;20042;-58
2023/12/28 03:39:30;;;;;;;10.93;2.90;;;;;;;;;;4996711;28;20042;-58
2023/12/28 03:41:56;;;;;;;14.48;2.17;;;;;;;;;;4989727;28;20057;-59
2023/12/28 03:44:22;;;;;;;13.38;2.10;;;;;;;;;;4995878;28;20565;-59
2023/12/28 03:46:51;;;;;;;11.05;2.17;;;;;;;;;;4999983;28;20709;-59
2023/12/28 03:49:18;;;;;;;9.48;1.92;;;;;;;;;;5002554;28;20045;-60
2023/12/28 03:51:44;;;;;;;9.80;1.98;;;;;;;;;;4989298;28;20093;-58
2023/12/28 03:54:10;;;;;;;8.55;2.30;;;;;;;;;;4990002;28;20050;-59
2023/12/28 03:56:39;;;;;;;13.68;2.13;;;;;;;;;;4986380;28;20050;-59
2023/12/28 03:59:05;;;;;;;12.40;2.38;;;;;;;;;;4997918;28;20706;-58
2023/12/28 04:01:31;;;;;;;15.20;2.13;;;;;;;;;;4997929;28;20503;-59
2023/12/28 04:03:57;;;;;;;6.63;2.13;;;;;;;;;;4997184;28;20084;-59
2023/12/28 04:06:23;;;;;;;10.23;3.08;;;;;;;;;;4990267;28;20046;-59
2023/12/28 04:08:49;;;;;;;8.70;1.83;;;;;;;;;;5002948;28;20811;-59
2023/12/28 04:11:15;;;;;;;9.48;2.35;;;;;;;;;;5002481;28;20112;-58
2023/12/28 04:13:41;;;;;;;8.02;2.08;;;;;;;;;;5002857;28;20046;-59
2023/12/28 04:16:09;;;;;;;10.27;2.72;;;;;;;;;;4999376;28;20439;-59
2023/12/28 04:18:35;;;;;;;7.65;2.03;;;;;;;;;;4997428;28;20046;-59
2023/12/28 04:21:01;;;;;;;8.38;1.50;;;;;;;;;;5002697;28;20391;-59
2023/12/28 04:23:27;;;;;;;12.65;3.85;;;;;;;;;;4999160;28;20069;-59
2023/12/28 04:25:53;;;;;;;7.75;2.10;;;;;;;;;;4999256;28;20050;-59
2023/12/28 04:28:19;;;;;;;9.73;2.25;;;;;;;;;;4985501;28;20061;-59
2023/12/28 04:30:45;;;;;;;10.88;2.10;;;;;;;;;;4989502;28;20479;-59
2023/12/28 04:33:11;;;;;;;9.35;1.95;;;;;;;;;;5003956;28;20555;-59
2023/12/28 04:35:37;;;;;;;7.35;1.90;;;;;;;;;;5001169;28;20415;-59
2023/12/28 04:38:03;;;;;;;7.45;1.98;;;;;;;;;;5001921;28;20037;-59
2023/12/28 04:40:29;;;;;;;10.07;2.35;;;;;;;;;;5000187;28;20038;-59
2023/12/28 04:42:55;;;;;;;10.43;2.55;;;;;;;;;;5000759;28;20037;-59
2023/12/28 04:45:22;;;;;;;13.05;1.88;;;;;;;;;;4982947;28;20054;-59
2023/12/28 04:47:48;;;;;;;13.88;1.80;;;;;;;;;;4997970;28;20046;-59
2023/12/28 04:50:14;;;;;;;12.35;2.50;;;;;;;;;;4996819;28;20056;-59
2023/12/28 04:52:40;;;;;;;13.27;2.20;;;;;;;;;;4994921;28;20076;-58
2023/12/28 04:55:07;;;;;;;10.50;1.75;;;;;;;;;;4989942;28;20050;-59
2023/12/28 04:57:33;;;;;;;9.23;1.98;;;;;;;;;;4999196;28;20042;-59
2023/12/28 04:59:59;;;;;;;14.80;2.60;;;;;;;;;;4992692;28;20121;-59
2023/12/28 05:02:25;;;;;;;11.10;1.85;;;;;;;;;;5000628;28;20491;-59
2023/12/28 05:04:51;;;;;;;29.60;3.05;;;;;;;;;;5000497;28;20049;-59
2023/12/28 05:07:17;;;;;;;9.43;1.92;;;;;;;;;;4998795;28;20650;-59
2023/12/28 05:09:43;;;;;;;12.15;2.75;;;;;;;;;;4989078;28;20054;-59
2023/12/28 05:12:09;;;;;;;11.95;2.00;;;;;;;;;;4992025;28;20057;-59
2023/12/28 05:14:35;;;;;;;11.50;2.30;;;;;;;;;;4997314;28;20045;-59
2023/12/28 05:17:01;;;;;;;12.52;2.47;;;;;;;;;;4999327;28;20957;-59
2023/12/28 05:19:27;;;;;;;10.85;2.28;;;;;;;;;;4999939;28;20148;-59
2023/12/28 05:21:53;;;;;;;14.48;2.97;;;;;;;;;;5000421;28;20037;-59
2023/12/28 05:24:19;;;;;;;15.10;2.03;;;;;;;;;;5001035;28;20045;-58
2023/12/28 05:26:45;;;;;;;14.80;2.70;;;;;;;;;;4990175;28;20381;-59
2023/12/28 05:29:10;;;;;;;11.93;1.80;;;;;;;;;;4984587;28;20080;-59
2023/12/28 05:31:37;;;;;;;18.15;2.28;;;;;;;;;;4988962;28;20053;-59
2023/12/28 05:34:04;;;;;;;13.75;2.83;;;;;;;;;;4995970;28;20096;-59
2023/12/28 05:36:30;;;;;;;16.50;2.05;;;;;;;;;;4990292;28;20766;-59
2023/12/28 05:38:56;;;;;;;15.70;2.33;;;;;;;;;;4997025;28;20543;-59
2023/12/28 05:41:22;;;;;;;9.68;1.80;;;;;;;;;;4994278;28;20100;-58
2023/12/28 05:43:47;;;;;;;13.95;2.30;;;;;;;;;;4996283;28;20041;-59
2023/12/28 05:46:14;;;;;;;14.13;2.50;;;;;;;;;;5002953;28;20348;-58
2023/12/28 05:48:40;;;;;;;11.80;2.08;;;;;;;;;;5002387;28;20474;-58
2023/12/28 05:51:06;;;;;;;15.23;1.70;;;;;;;;;;5001891;28;20535;-59
2023/12/28 05:53:32;;;;;;;14.55;3.03;;;;;;;;;;5002065;28;20052;-61
2023/12/28 05:56:03;;;;;;;13.40;2.42;;;;;;;;;;5001634;28;20538;-58
2023/12/28 05:58:29;;;;;;;12.43;2.22;;;;;;;;;;5002587;28;20117;-59
2023/12/28 06:00:55;;;;;;;12.57;1.95;;;;;;;;;;5001718;28;20125;-59
2023/12/28 06:03:21;;;;;;;12.57;2.60;;;;;;;;;;5002375;28;20472;-59
2023/12/28 06:05:47;;;;;;;20.67;1.90;;;;;;;;;;5000944;28;20443;-59
2023/12/28 06:08:13;;;;;;;12.90;1.60;;;;;;;;;;5001671;28;20081;-59
2023/12/28 06:10:39;;;;;;;10.75;1.52;;;;;;;;;;5000561;28;20566;-59
2023/12/28 06:13:06;;;;;;;12.60;1.92;;;;;;;;;;4995705;28;20038;-59
2023/12/28 06:15:32;;;;;;;14.75;2.60;;;;;;;;;;4997111;28;20046;-59
2023/12/28 06:17:58;;;;;;;12.45;2.65;;;;;;;;;;4993715;28;20056;-58
2023/12/28 06:20:24;;;;;;;15.20;2.95;;;;;;;;;;5000001;28;20050;-59
2023/12/28 06:22:50;;;;;;;12.60;2.13;;;;;;;;;;5000148;28;20061;-58
2023/12/28 06:25:17;;;;;;;12.70;2.88;;;;;;;;;;4993030;28;20053;-58
2023/12/28 06:27:43;;;;;;;15.85;2.60;;;;;;;;;;4983145;28;20562;-59
2023/12/28 06:30:09;;;;;;;12.23;2.30;;;;;;;;;;4982396;28;20043;-59
2023/12/28 06:32:35;;;;;;;13.80;2.03;;;;;;;;;;4982270;28;20101;-59
2023/12/28 06:35:01;;;;;;;12.98;2.00;;;;;;;;;;4992406;28;20096;-58
2023/12/28 06:37:27;;;;;;;18.48;2.75;;;;;;;;;;4999326;28;20522;-59
2023/12/28 06:39:53;;;;;;;14.35;1.83;;;;;;;;;;5000754;28;20042;-58
2023/12/28 06:42:19;;;;;;;9.82;1.67;;;;;;;;;;4998544;28;20108;-59
2023/12/28 06:44:45;;;;;;;18.40;2.30;;;;;;;;;;4996867;28;20037;-59
2023/12/28 06:47:11;;;;;;;18.15;2.63;;;;;;;;;;4996449;28;20042;-59
2023/12/28 06:49:37;;;;;;;14.70;2.65;;;;;;;;;;4995446;28;20045;-58
2023/12/28 06:52:03;;;;;;;18.77;2.33;;;;;;;;;;4988416;28;20042;-59
2023/12/28 06:54:29;;;;;;;13.32;2.33;;;;;;;;;;4991558;28;20107;-59
2023/12/28 06:56:55;;;;;;;19.73;2.22;;;;;;;;;;4987275;28;20038;-59
2023/12/28 06:59:21;;;;;;;16.63;2.17;;;;;;;;;;4987764;28;20038;-58
2023/12/28 07:01:48;;;;;;;18.90;3.08;;;;;;;;;;4992781;28;20041;-58
2023/12/28 07:04:14;;;;;;;18.83;2.78;;;;;;;;;;4998951;28;20141;-58
2023/12/28 07:06:40;;;;;;;14.32;2.10;;;;;;;;;;4993274;28;20575;-58
2023/12/28 07:09:06;;;;;;;17.60;2.35;;;;;;;;;;4997550;28;20053;-59
2023/12/28 07:11:32;;;;;;;19.75;2.50;;;;;;;;;;4991371;28;20388;-59
2023/12/28 07:13:58;;;;;;;17.48;2.72;;;;;;;;;;4983783;28;20559;-58
2023/12/28 07:16:26;;;;;;;15.48;2.53;;;;;;;;;;4998671;28;20056;-59
2023/12/28 07:18:52;;;;;;;8.83;1.80;;;;;;;;;;4991434;28;20554;-59
2023/12/28 07:21:18;;;;;;;13.32;2.42;;;;;;;;;;4999598;28;20765;-58
2023/12/28 07:23:48;;;;;;;11.82;2.13;;;;;;;;;;4998834;28;20089;-58
2023/12/28 07:26:15;;;;;;;13.13;1.95;;;;;;;;;;4991853;28;20095;-58
2023/12/28 07:28:43;;;;;;;16.25;2.45;;;;;;;;;;4984405;28;20043;-58
2023/12/28 07:31:09;;;;;;;15.82;2.15;;;;;;;;;;4995162;28;20108;-59
2023/12/28 07:33:35;;;;;;;16.30;2.63;;;;;;;;;;4982810;28;20077;-59
2023/12/28 07:36:06;;;;;;;16.20;2.50;;;;;;;;;;4999174;28;20107;-59
2023/12/28 07:38:32;;;;;;;24.05;5.70;;;;;;;;;;4997412;28;20045;-59
2023/12/28 07:40:58;;;;;;;15.90;2.03;;;;;;;;;;4997117;28;20802;-58
2023/12/28 07:43:23;;;;;;;11.02;2.08;;;;;;;;;;5000321;28;20070;-58
2023/12/28 07:45:49;;;;;;;13.02;2.55;;;;;;;;;;4993258;28;20080;-59
2023/12/28 07:48:15;;;;;;;18.48;2.63;;;;;;;;;;4997495;28;20093;-58
2023/12/28 07:50:42;;;;;;;16.33;2.20;;;;;;;;;;4996066;28;20520;-58
2023/12/28 07:53:08;;;;;;;15.73;2.08;;;;;;;;;;4995106;28;20053;-58
2023/12/28 07:55:34;;;;;;;18.75;2.58;;;;;;;;;;4992493;28;20045;-58
2023/12/28 07:57:59;;;;;;;13.38;2.03;;;;;;;;;;4994839;28;20484;-58
2023/12/28 08:00:25;;;;;;;16.73;2.42;;;;;;;;;;4992095;28;20159;-58
2023/12/28 08:02:51;;;;;;;14.75;2.25;;;;;;;;;;4998230;28;20042;-58
2023/12/28 08:05:17;;;;;;;16.13;2.40;;;;;;;;;;4981141;28;20089;-58
2023/12/28 08:07:43;;;;;;;20.45;2.92;;;;;;;;;;4994481;28;20042;-58
2023/12/28 08:10:10;;;;;;;18.88;2.85;;;;;;;;;;4995167;28;20611;-59
2023/12/28 08:12:36;;;;;;;20.27;3.13;;;;;;;;;;4993795;28;20046;-58
2023/12/28 08:15:02;;;;;;;21.05;2.75;;;;;;;;;;4992228;28;20776;-59
2023/12/28 08:17:28;;;;;;;20.38;2.42;;;;;;;;;;4991656;28;20038;-59
2023/12/28 08:19:54;;;;;;;21.10;2.70;;;;;;;;;;4997666;28;20069;-58
2023/12/28 08:22:20;;;;;;;22.50;2.90;;;;;;;;;;4992795;28;20070;-58
2023/12/28 08:24:46;;;;;;;19.65;2.70;;;;;;;;;;4999224;28;20112;-58
2023/12/28 08:27:11;;;;;;;17.50;2.60;;;;;;;;;;4989472;28;20046;-58
2023/12/28 08:29:37;;;;;;;22.02;2.95;;;;;;;;;;4982007;28;20049;-59
2023/12/28 08:32:04;;;;;;;28.13;3.88;;;;;;;;;;4987399;28;20068;-59
2023/12/28 08:34:30;;;;;;;23.30;4.18;;;;;;;;;;5002772;28;20046;-59
2023/12/28 08:36:56;;;;;;;25.95;3.13;;;;;;;;;;5001748;28;20503;-59
2023/12/28 08:39:22;;;;;;;20.30;2.90;;;;;;;;;;5002908;28;20695;-59
2023/12/28 08:41:48;;;;;;;19.50;2.30;;;;;;;;;;5000896;28;20053;-59
2023/12/28 08:44:14;;;;;;;12.38;1.98;;;;;;;;;;4997899;28;20117;-59
2023/12/28 08:46:40;;;;;;;16.60;2.28;;;;;;;;;;4998336;28;20044;-59
2023/12/28 08:49:06;;;;;;;29.58;3.70;;;;;;;;;;4993953;28;20526;-59
2023/12/28 08:51:32;;;;;;;19.40;3.08;;;;;;;;;;4996283;28;20522;-58
2023/12/28 08:53:58;;;;;;;15.15;2.35;;;;;;;;;;4990346;28;20042;-59
2023/12/28 08:56:24;;;;;;;29.65;3.03;;;;;;;;;;4994848;28;20081;-58
2023/12/28 08:58:52;;;;;;;24.35;2.67;;;;;;;;;;4995104;28;20062;-58
2023/12/28 09:01:22;;;;;;;20.07;3.17;;;;;;;;;;4991939;28;20046;-59
2023/12/28 09:03:49;;;;;;;16.30;2.80;;;;;;;;;;4986975;28;20050;-59
2023/12/28 09:06:16;;;;;;;23.10;3.33;;;;;;;;;;4998512;28;20590;-59
2023/12/28 09:08:43;;;;;;;17.25;2.15;;;;;;;;;;4991961;28;20152;-59
2023/12/28 09:11:10;;;;;;;20.67;3.47;;;;;;;;;;4987793;28;20049;-59
2023/12/28 09:13:36;;;;;;;20.25;3.67;;;;;;;;;;4990027;28;20045;-60
2023/12/28 09:16:02;;;;;;;19.50;2.70;;;;;;;;;;5000853;28;20138;-59
2023/12/28 09:18:28;;;;;;;21.40;3.20;;;;;;;;;;4992199;28;20045;-58
2023/12/28 09:20:55;;;;;;;15.77;2.60;;;;;;;;;;5001482;28;20049;-59
2023/12/28 09:23:21;;;;;;;20.88;2.50;;;;;;;;;;5001849;28;20050;-59
2023/12/28 09:25:49;;;;;;;23.63;2.95;;;;;;;;;;4995836;28;20045;-59
2023/12/28 09:28:15;;;;;;;19.75;3.22;;;;;;;;;;4997956;28;20060;-59
2023/12/28 09:30:41;;;;;;;25.60;3.20;;;;;;;;;;4998620;28;20034;-59
2023/12/28 09:33:07;;;;;;;23.23;2.88;;;;;;;;;;4996341;28;20046;-60
2023/12/28 09:35:33;;;;;;;16.08;2.78;;;;;;;;;;4993430;28;20050;-59
2023/12/28 09:37:59;;;;;;;12.00;2.88;;;;;;;;;;4996604;28;20050;-59
2023/12/28 09:40:25;;;;;;;22.33;3.90;;;;;;;;;;5001629;28;20057;-59
2023/12/28 09:43:00;;;;;;;28.60;3.25;;;;;;;;;;4993891;28;20038;-59
2023/12/28 09:45:26;;;;;;;16.25;2.97;;;;;;;;;;4987593;28;20057;-59
2023/12/28 09:47:52;;;;;;;22.13;3.20;;;;;;;;;;4990300;28;20046;-59
2023/12/28 09:50:19;;;;;;;18.77;2.63;;;;;;;;;;4984984;28;20050;-59
2023/12/28 09:52:45;;;;;;;22.48;3.22;;;;;;;;;;4985356;28;20483;-59
2023/12/28 09:55:11;;;;;;;18.40;3.03;;;;;;;;;;4984024;28;20496;-59
2023/12/28 09:57:38;;;;;;;25.48;3.00;;;;;;;;;;4984793;28;20712;-59
2023/12/28 10:00:06;;;;;;;20.27;2.45;;;;;;;;;;5001275;28;20565;-59
2023/12/28 10:02:33;;;;;;;19.98;2.95;;;;;;;;;;4999007;28;20774;-59
2023/12/28 10:04:59;;;;;;;26.38;3.08;;;;;;;;;;5001552;28;20069;-59
2023/12/28 10:07:26;;;;;;;13.18;2.22;;;;;;;;;;4999270;28;20436;-59
2023/12/28 10:09:52;;;;;;;17.90;2.95;;;;;;;;;;4997025;28;20054;-59
2023/12/28 10:12:18;;;;;;;21.52;3.13;;;;;;;;;;4999126;28;20093;-59
2023/12/28 10:14:44;;;;;;;14.18;2.28;;;;;;;;;;4993811;28;20085;-59
2023/12/28 10:17:10;;;;;;;17.70;3.08;;;;;;;;;;4992703;28;20117;-59
2023/12/28 10:19:37;;;;;;;25.30;2.97;;;;;;;;;;5001146;28;20541;-59
2023/12/28 10:22:04;;;;;;;27.00;2.90;;;;;;;;;;4997776;28;20038;-59
2023/12/28 10:24:30;;;;;;;25.70;2.38;;;;;;;;;;4999760;28;20535;-59
2023/12/28 10:26:56;;;;;;;19.05;2.63;;;;;;;;;;4990230;28;20034;-58
2023/12/28 10:29:26;;;;;;;32.80;3.10;;;;;;;;;;4999585;28;20042;-59
2023/12/28 10:31:52;;;;;;;24.95;3.33;;;;;;;;;;4998778;28;20041;-59
2023/12/28 10:34:19;;;;;;;26.80;2.70;;;;;;;;;;4997258;28;20037;-60
2023/12/28 10:36:45;;;;;;;19.48;2.90;;;;;;;;;;4993153;28;20134;-59
2023/12/28 10:39:13;;;;;;;19.85;3.45;;;;;;;;;;4999961;28;20049;-59
2023/12/28 10:41:41;;;;;;;16.65;2.65;;;;;;;;;;4998581;28;20515;-59
2023/12/28 10:44:09;;;;;;;26.35;3.63;;;;;;;;;;4991295;28;20499;-59
2023/12/28 10:46:38;;;;;;;17.98;3.00;;;;;;;;;;4988676;28;20603;-59
2023/12/28 10:49:11;;;;;;;17.13;1.88;;;;;;;;;;4986915;28;20050;-59
2023/12/28 10:51:40;;;;;;;22.45;3.80;;;;;;;;;;4999276;28;20064;-58
2023/12/28 10:54:06;;;;;;;19.27;2.65;;;;;;;;;;4991099;28;20073;-59
2023/12/28 10:56:32;;;;;;;23.25;2.72;;;;;;;;;;4996978;28;20164;-59
2023/12/28 10:59:17;;;;;;;22.17;3.08;;;;;;;;;;4983049;28;20078;-59
2023/12/28 11:01:45;;;;;;;11.23;2.20;;;;;;;;;;4980305;28;20507;-59
2023/12/28 11:04:25;;;;;;;24.55;2.65;;;;;;;;;;4993858;28;20081;-58
2023/12/28 11:06:51;;;;;;;21.45;3.42;;;;;;;;;;4998849;28;20038;-60
2023/12/28 11:09:17;;;;;;;16.60;2.42;;;;;;;;;;4998158;28;20057;-60
2023/12/28 11:11:44;;;;;;;12.48;2.42;;;;;;;;;;4998548;28;20057;-61
2023/12/28 11:14:11;;;;;;;24.05;2.65;;;;;;;;;;4997830;28;20057;-60
2023/12/28 11:16:38;;;;;;;18.48;2.80;;;;;;;;;;4983324;28;20177;-60
2023/12/28 11:19:04;;;;;;;23.50;3.78;;;;;;;;;;4994181;28;20042;-60
2023/12/28 11:21:30;;;;;;;23.25;3.38;;;;;;;;;;4999267;28;20046;-60
2023/12/28 11:23:57;;;;;;;21.65;6.72;;;;;;;;;;5001132;28;20416;-60
2023/12/28 11:26:23;;;;;;;15.35;2.65;;;;;;;;;;4991844;28;20057;-60
2023/12/28 11:28:49;;;;;;;28.77;2.67;;;;;;;;;;4983457;28;20096;-61
2023/12/28 11:31:15;;;;;;;23.23;3.38;;;;;;;;;;4981793;28;20038;-61
2023/12/28 11:33:45;;;;;;;16.92;3.25;;;;;;;;;;4994953;28;20054;-61
2023/12/28 11:36:11;;;;;;;14.43;2.60;;;;;;;;;;4998761;28;20085;-61
2023/12/28 11:38:39;;;;;;;18.60;2.30;;;;;;;;;;4994369;28;20128;-61
2023/12/28 11:41:05;;;;;;;18.07;2.53;;;;;;;;;;4997225;28;20124;-60
2023/12/28 11:43:35;;;;;;;16.65;2.67;;;;;;;;;;4995999;28;20454;-61
2023/12/28 11:46:05;;;;;;;22.92;2.28;;;;;;;;;;4996243;28;20061;-59
2023/12/28 11:48:31;;;;;;;22.38;3.15;;;;;;;;;;4993232;28;20042;-60
2023/12/28 11:50:58;;;;;;;22.67;3.10;;;;;;;;;;4997645;28;20049;-61
2023/12/28 11:53:24;;;;;;;17.23;3.53;;;;;;;;;;4997685;28;20056;-60
2023/12/28 11:55:50;;;;;;;20.77;3.33;;;;;;;;;;4991693;28;20046;-61
2023/12/28 11:58:20;;;;;;;19.25;2.75;;;;;;;;;;4998583;28;20049;-61
2023/12/28 12:00:46;;;;;;;15.60;2.42;;;;;;;;;;4994803;28;20046;-61
2023/12/28 12:03:12;;;;;;;18.65;2.35;;;;;;;;;;5000218;28;20045;-60
2023/12/28 12:05:38;;;;;;;17.70;2.08;;;;;;;;;;4991376;28;20125;-61
2023/12/28 12:08:05;;;;;;;22.58;3.60;;;;;;;;;;4995053;28;20034;-61
2023/12/28 12:10:32;;;;;;;15.68;2.85;;;;;;;;;;4995272;28;20062;-60
2023/12/28 12:12:58;;;;;;;24.25;2.97;;;;;;;;;;5004153;28;20053;-61
2023/12/28 12:15:24;;;;;;;25.73;2.95;;;;;;;;;;4990003;28;20039;-61
2023/12/28 12:17:50;;;;;;;24.85;2.72;;;;;;;;;;4992866;28;20078;-61
2023/12/28 12:20:16;;;;;;;26.85;2.95;;;;;;;;;;4997527;28;20057;-61
2023/12/28 12:22:42;;;;;;;29.27;2.92;;;;;;;;;;5000767;28;20511;-61
2023/12/28 12:25:09;;;;;;;20.30;3.20;;;;;;;;;;4998820;28;20043;-61
2023/12/28 12:27:38;;;;;;;22.05;3.20;;;;;;;;;;4991423;28;20042;-61
2023/12/28 12:30:04;;;;;;;;;;;;;;;;;;4991919;28;20558;-61
2023/12/28 12:32:31;;;;;;;22.58;2.70;;;;;;;;;;4985252;28;19925;-61
2023/12/28 12:34:57;;;;;;;24.17;3.17;;;;;;;;;;4996956;28;20054;-61
2023/12/28 12:37:24;;;;;;;23.23;3.22;;;;;;;;;;4984908;28;20665;-60
2023/12/28 12:39:50;;;;;;;21.75;2.45;;;;;;;;;;4990819;28;20038;-61
2023/12/28 12:42:17;;;;;;;22.85;2.97;;;;;;;;;;4992532;28;20114;-61
2023/12/28 12:44:43;;;;;;;15.32;2.60;;;;;;;;;;4996857;28;20053;-61
2023/12/28 12:47:09;;;;;;;18.55;2.97;;;;;;;;;;4983976;28;20065;-61
2023/12/28 12:49:35;;;;;;;21.15;3.15;;;;;;;;;;4987801;28;20797;-62
2023/12/28 12:52:01;;;;;;;26.58;3.72;;;;;;;;;;4991222;28;20170;-61
2023/12/28 12:54:28;;;;;;;25.33;2.80;;;;;;;;;;4994036;28;20140;-61
2023/12/28 12:56:54;;;;;;;28.23;5.90;;;;;;;;;;4980832;28;20058;-61
2023/12/28 12:59:21;;;;;;;23.27;3.10;;;;;;;;;;4980739;28;20125;-61
2023/12/28 13:01:51;;;;;;;25.40;2.80;;;;;;;;;;4987291;28;20415;-61
2023/12/28 13:04:17;;;;;;;23.90;3.05;;;;;;;;;;4997655;28;20526;-61
2023/12/28 13:06:43;;;;;;;20.60;3.10;;;;;;;;;;4998560;28;20048;-60
2023/12/28 13:09:11;;;;;;;20.20;2.60;;;;;;;;;;4996159;28;20065;-61
2023/12/28 13:11:37;;;;;;;17.55;3.42;;;;;;;;;;4997298;28;20124;-61
2023/12/28 13:14:04;;;;;;;18.00;2.88;;;;;;;;;;4989839;28;20053;-61
2023/12/28 13:16:30;;;;;;;20.55;2.80;;;;;;;;;;5000299;28;20045;-61
2023/12/28 13:18:57;;;;;;;17.15;2.70;;;;;;;;;;4996858;28;20091;-61
2023/12/28 13:21:23;;;;;;;28.55;3.10;;;;;;;;;;5002374;28;20128;-61
2023/12/28 13:23:49;;;;;;;19.90;2.83;;;;;;;;;;4999801;28;20065;-61
2023/12/28 13:26:15;;;;;;;14.70;2.20;;;;;;;;;;4991996;28;20035;-61
2023/12/28 13:28:42;;;;;;;23.00;3.85;;;;;;;;;;4996864;28;20046;-61
2023/12/28 13:31:08;;;;;;;20.05;2.53;;;;;;;;;;4996352;28;20129;-61
2023/12/28 13:33:34;;;;;;;18.65;2.97;;;;;;;;;;4989650;28;20526;-61
2023/12/28 13:36:00;;;;;;;21.17;3.33;;;;;;;;;;4995015;28;20521;-61
2023/12/28 13:38:27;;;;;;;16.52;2.80;;;;;;;;;;4999374;28;20046;-61
2023/12/28 13:40:53;;;;;;;19.83;2.95;;;;;;;;;;4993272;28;20093;-61
2023/12/28 13:43:19;;;;;;;16.90;2.38;;;;;;;;;;4997150;28;20085;-61
2023/12/28 13:45:45;;;;;;;24.15;3.58;;;;;;;;;;4989192;28;20141;-61
2023/12/28 13:48:11;;;;;;;23.58;3.15;;;;;;;;;;4989073;28;20100;-61
2023/12/28 13:50:37;;;;;;;18.85;2.78;;;;;;;;;;4985943;28;20046;-61
2023/12/28 13:53:06;;;;;;;28.13;3.20;;;;;;;;;;4986460;28;20104;-61
2023/12/28 13:55:33;;;;;;;20.20;3.20;;;;;;;;;;4983528;28;20130;-61
2023/12/28 13:57:59;;;;;;;16.30;2.80;;;;;;;;;;5000830;28;20046;-61
2023/12/28 14:00:25;;;;;;;16.92;3.67;;;;;;;;;;5001240;28;20694;-61
2023/12/28 14:02:52;;;;;;;19.50;3.17;;;;;;;;;;4997896;28;20049;-61
2023/12/28 14:05:19;;;;;;;21.77;3.25;;;;;;;;;;4998734;28;20100;-61
2023/12/28 14:07:45;;;;;;;25.30;3.40;;;;;;;;;;4997425;28;20057;-61
2023/12/28 14:10:11;;;;;;;23.90;2.97;;;;;;;;;;4996775;28;20046;-61
2023/12/28 14:12:37;;;;;;;21.90;3.40;;;;;;;;;;4988726;28;20046;-61
2023/12/28 14:15:03;;;;;;;23.65;2.67;;;;;;;;;;4993971;28;20052;-61
2023/12/28 14:17:30;;;;;;;17.83;2.72;;;;;;;;;;5000759;28;20049;-61
2023/12/28 14:19:56;;;;;;;17.10;3.28;;;;;;;;;;4999957;28;20060;-61
2023/12/28 14:22:22;;;;;;;13.90;2.30;;;;;;;;;;5000126;28;20620;-61
2023/12/28 14:24:48;;;;;;;20.52;2.85;;;;;;;;;;4998570;28;20053;-61
2023/12/28 14:27:14;;;;;;;19.83;2.80;;;;;;;;;;4987974;28;20076;-61
2023/12/28 14:29:41;;;;;;;21.58;3.15;;;;;;;;;;4984294;28;20045;-61